Time;durP1;ratioP1;P1;durP2;ratioP2;P2;SDS_P1;SDS_P2;PMS_P1;PMS_P2;Temp;Humidity;BMP_temperature;BMP_pressure;BME280_temperature;BME280_humidity;BME280_pressure;Samples;Min_cycle;Max_cycle;Signal;HPM_P1;HPM_P2
2022/09/13 00:01:27;;;;;;;4.00;2.97;;;17.30;77.40;;;;;;5042809;28;20215;-72
2022/09/13 00:03:52;;;;;;;4.60;3.10;;;17.30;77.30;;;;;;5043132;28;20221;-71
2022/09/13 00:06:19;;;;;;;4.70;3.13;;;17.20;77.70;;;;;;5042666;28;20189;-72
2022/09/13 00:08:45;;;;;;;4.27;3.00;;;17.20;78.30;;;;;;5045648;28;20260;-72
2022/09/13 00:11:17;;;;;;;4.80;3.10;;;17.20;78.30;;;;;;5051462;28;20924;-71
2022/09/13 00:13:43;;;;;;;5.23;3.13;;;17.20;78.00;;;;;;5042689;28;20969;-71
2022/09/13 00:16:12;;;;;;;3.70;2.60;;;17.20;78.10;;;;;;5042190;28;20438;-72
2022/09/13 00:18:40;;;;;;;4.50;2.90;;;17.20;78.00;;;;;;5044094;28;20342;-72
2022/09/13 00:21:11;;;;;;;5.10;2.63;;;17.10;78.10;;;;;;5048176;28;20530;-71
2022/09/13 00:23:37;;;;;;;3.70;2.80;;;17.10;78.30;;;;;;5043351;28;20462;-72
2022/09/13 00:26:09;;;;;;;3.67;2.67;;;17.10;78.40;;;;;;5047548;28;20422;-72
2022/09/13 00:28:35;;;;;;;4.37;2.60;;;17.10;78.40;;;;;;5039625;28;20944;-72
2022/09/13 00:31:03;;;;;;;4.13;2.73;;;17.00;78.40;;;;;;5047982;28;20419;-71
2022/09/13 00:33:29;;;;;;;4.40;2.53;;;17.00;78.40;;;;;;5045978;28;20455;-72
2022/09/13 00:35:54;;;;;;;5.40;2.83;;;17.00;78.40;;;;;;5043429;28;20818;-71
2022/09/13 00:38:20;;;;;;;3.37;2.63;;;17.10;78.30;;;;;;5043517;28;20307;-71
2022/09/13 00:40:46;;;;;;;6.57;2.90;;;17.00;78.30;;;;;;5044554;28;20197;-72
2022/09/13 00:43:19;;;;;;;3.83;3.00;;;16.90;78.40;;;;;;5041970;28;20204;-72
2022/09/13 00:45:46;;;;;;;4.73;2.80;;;16.80;78.70;;;;;;5039325;28;20188;-72
2022/09/13 00:48:24;;;;;;;5.60;2.93;;;16.80;79.00;;;;;;5044636;28;20451;-72
2022/09/13 00:50:54;;;;;;;4.17;3.03;;;16.80;79.20;;;;;;5042199;28;20797;-72
2022/09/13 00:53:32;;;;;;;3.60;2.23;;;16.80;79.30;;;;;;5037579;28;20552;-72
2022/09/13 00:56:14;;;;;;;4.50;2.97;;;16.80;79.50;;;;;;5041372;28;20442;-71
2022/09/13 00:58:48;;;;;;;3.37;2.43;;;16.80;79.60;;;;;;5044211;28;20432;-72
2022/09/13 01:01:15;;;;;;;5.10;2.60;;;16.70;79.70;;;;;;5040955;28;20482;-71
2022/09/13 01:03:42;;;;;;;3.77;2.47;;;16.70;80.00;;;;;;5042556;28;20450;-71
2022/09/13 01:06:15;;;;;;;10.03;3.23;;;16.70;80.00;;;;;;5038766;28;20412;-71
2022/09/13 01:08:44;;;;;;;3.30;2.37;;;16.60;80.30;;;;;;5041726;28;20934;-71
2022/09/13 01:11:16;;;;;;;3.30;2.40;;;16.60;80.50;;;;;;5043277;28;20410;-71
2022/09/13 01:13:42;;;;;;;4.33;2.67;;;16.50;80.60;;;;;;5043461;28;20832;-72
2022/09/13 01:16:08;;;;;;;3.53;2.67;;;16.50;81.10;;;;;;5036646;28;20517;-71
2022/09/13 01:18:34;;;;;;;4.20;2.73;;;16.50;81.20;;;;;;5040836;28;20571;-71
2022/09/13 01:21:41;;;;;;;3.30;2.30;;;16.50;81.10;;;;;;5040850;28;20193;-71
2022/09/13 01:24:44;;;;;;;4.77;3.10;;;16.50;80.90;;;;;;5042344;28;20288;-71
2022/09/13 01:27:27;;;;;;;5.70;2.70;;;16.40;81.50;;;;;;5039956;28;20422;-71
2022/09/13 01:30:07;;;;;;;4.53;2.90;;;16.30;81.50;;;;;;5041871;28;20659;-73
2022/09/13 01:32:36;;;;;;;2.57;2.40;;;16.30;82.10;;;;;;5043328;28;20461;-70
2022/09/13 01:35:01;;;;;;;4.03;2.63;;;16.20;81.80;;;;;;5037939;28;20483;-72
2022/09/13 01:37:37;;;;;;;3.73;2.70;;;16.20;82.10;;;;;;5040037;28;20462;-72
2022/09/13 01:40:17;;;;;;;4.70;2.70;;;16.20;82.20;;;;;;5037105;28;20187;-72
2022/09/13 01:42:53;;;;;;;4.00;2.80;;;16.20;82.40;;;;;;5036410;28;20463;-71
2022/09/13 01:45:48;;;;;;;2.90;2.43;;;16.20;82.20;;;;;;5043122;28;20957;-72
2022/09/13 01:48:23;;;;;;;5.80;3.50;;;16.10;82.40;;;;;;5036085;28;20420;-72
2022/09/13 01:51:23;;;;;;;5.60;2.70;;;16.00;83.00;;;;;;5042237;28;20536;-71
2022/09/13 01:54:04;;;;;;;3.50;2.60;;;15.90;83.60;;;;;;4998356;28;20466;-72
2022/09/13 01:56:52;;;;;;;2.90;2.40;;;15.90;83.70;;;;;;5046779;28;20438;-68
2022/09/13 01:59:40;;;;;;;3.30;2.20;;;15.90;84.00;;;;;;5041185;28;20411;-71
2022/09/13 02:02:20;;;;;;;4.10;2.80;;;16.00;84.00;;;;;;5032577;28;20463;-72
2022/09/13 02:04:53;;;;;;;3.77;2.77;;;16.00;83.60;;;;;;5041478;28;20455;-69
2022/09/13 02:07:33;;;;;;;5.27;2.70;;;16.10;83.60;;;;;;5038099;28;20438;-72
2022/09/13 02:10:05;;;;;;;3.90;2.17;;;16.10;83.40;;;;;;5040161;28;21676;-71
2022/09/13 02:12:34;;;;;;;4.50;2.60;;;16.10;83.40;;;;;;5037491;28;20546;-69
2022/09/13 02:15:07;;;;;;;4.33;2.87;;;16.00;83.60;;;;;;5044820;28;20872;-70
2022/09/13 02:17:37;;;;;;;4.00;2.80;;;16.00;83.70;;;;;;5038150;28;20518;-70
2022/09/13 02:20:19;;;;;;;3.57;2.83;;;16.00;83.80;;;;;;5039824;28;20961;-72
2022/09/13 02:22:50;;;;;;;4.87;3.10;;;15.90;83.80;;;;;;5040471;28;20940;-69
2022/09/13 02:25:18;;;;;;;5.27;3.37;;;15.90;84.00;;;;;;5043010;28;20465;-69
2022/09/13 02:27:48;;;;;;;3.40;2.87;;;15.90;84.10;;;;;;5048190;28;21100;-70
2022/09/13 02:30:14;;;;;;;5.03;2.97;;;15.70;84.60;;;;;;5042455;28;20898;-69
2022/09/13 02:32:55;;;;;;;5.93;2.60;;;15.70;84.90;;;;;;5044799;28;20427;-71
2022/09/13 02:35:23;;;;;;;3.83;2.70;;;15.90;84.40;;;;;;5044859;28;20960;-69
2022/09/13 02:38:01;;;;;;;3.80;2.60;;;15.90;84.40;;;;;;5049388;28;20436;-70
2022/09/13 02:40:33;;;;;;;3.33;2.80;;;16.00;84.30;;;;;;5047712;28;20927;-70
2022/09/13 02:43:23;;;;;;;4.07;2.87;;;16.00;84.00;;;;;;5048621;28;20470;-71
2022/09/13 02:46:09;;;;;;;3.97;2.87;;;16.00;84.00;;;;;;5047460;28;20439;-71
2022/09/13 02:48:49;;;;;;;6.87;3.00;;;15.90;84.00;;;;;;5044168;28;20428;-69
2022/09/13 02:51:33;;;;;;;4.17;3.07;;;15.80;84.70;;;;;;5048853;28;20420;-69
2022/09/13 02:54:19;;;;;;;4.23;3.10;;;15.80;85.20;;;;;;5041177;28;20543;-70
2022/09/13 02:57:07;;;;;;;3.83;2.73;;;15.80;84.90;;;;;;5045422;28;20424;-71
2022/09/13 02:59:33;;;;;;;5.03;2.97;;;15.80;84.70;;;;;;5044632;28;20481;-71
2022/09/13 03:02:02;;;;;;;4.03;2.70;;;15.80;84.70;;;;;;5046027;28;20459;-71
2022/09/13 03:04:28;;;;;;;3.40;3.00;;;15.80;85.20;;;;;;5051441;28;20909;-70
2022/09/13 03:06:54;;;;;;;6.83;3.30;;;15.70;85.20;;;;;;5049057;28;20443;-70
2022/09/13 03:09:21;;;;;;;5.20;3.30;;;15.70;85.30;;;;;;5047652;28;20427;-71
2022/09/13 03:12:18;;;;;;;5.90;3.70;;;15.70;85.50;;;;;;5044839;28;20530;-70
2022/09/13 03:15:02;;;;;;;5.17;3.13;;;15.70;85.30;;;;;;5054198;28;20918;-69
2022/09/13 03:17:58;;;;;;;4.63;3.60;;;15.70;85.60;;;;;;5042328;28;20450;-71
2022/09/13 03:20:37;;;;;;;5.17;3.47;;;15.80;85.50;;;;;;5050898;28;20439;-71
2022/09/13 03:23:32;;;;;;;7.90;3.63;;;15.70;85.20;;;;;;5045529;28;20474;-72
2022/09/13 03:26:16;;;;;;;4.77;3.23;;;15.70;85.50;;;;;;5052607;28;20415;-69
2022/09/13 03:28:53;;;;;;;6.97;3.70;;;15.70;85.60;;;;;;5055595;28;20438;-70
2022/09/13 03:31:34;;;;;;;5.50;3.70;;;15.70;85.60;;;;;;5036346;28;21004;-70
2022/09/13 03:34:08;;;;;;;3.70;2.77;;;15.70;85.90;;;;;;5046090;28;20545;-71
2022/09/13 03:36:53;;;;;;;3.37;2.70;;;15.70;85.70;;;;;;5039692;28;20921;-70
2022/09/13 03:39:38;;;;;;;5.70;3.10;;;15.70;85.70;;;;;;5041757;28;20413;-72
2022/09/13 03:42:23;;;;;;;5.87;3.00;;;15.80;85.50;;;;;;5040671;28;20994;-70
2022/09/13 03:44:51;;;;;;;4.10;3.10;;;15.80;85.30;;;;;;5041776;28;20561;-68
2022/09/13 03:47:18;;;;;;;4.33;3.67;;;15.70;85.50;;;;;;5042234;28;20426;-71
2022/09/13 03:49:45;;;;;;;7.80;3.77;;;15.70;85.60;;;;;;5044906;28;20499;-70
2022/09/13 03:52:11;;;;;;;6.50;3.60;;;15.70;85.70;;;;;;5037656;28;20437;-71
2022/09/13 03:54:37;;;;;;;4.33;3.40;;;15.70;85.60;;;;;;5044962;28;20488;-70
2022/09/13 03:57:12;;;;;;;4.93;3.73;;;15.60;86.00;;;;;;5040922;28;20786;-70
2022/09/13 03:59:43;;;;;;;4.90;3.43;;;15.60;86.30;;;;;;5044274;28;20931;-70
2022/09/13 04:02:10;;;;;;;4.40;3.23;;;15.60;86.30;;;;;;5040696;28;20522;-72
2022/09/13 04:04:40;;;;;;;6.03;3.70;;;15.70;86.30;;;;;;5047458;28;20462;-69
2022/09/13 04:07:06;;;;;;;4.47;3.20;;;15.70;86.00;;;;;;5043043;28;20941;-70
2022/09/13 04:09:32;;;;;;;5.93;3.33;;;15.80;86.00;;;;;;5044365;28;20522;-70
2022/09/13 04:11:57;;;;;;;5.80;3.60;;;15.70;85.70;;;;;;5045496;28;20517;-71
2022/09/13 04:14:25;;;;;;;5.23;3.47;;;15.70;85.90;;;;;;5045094;28;20709;-70
2022/09/13 04:16:52;;;;;;;4.60;3.40;;;15.70;85.90;;;;;;5042692;28;20192;-71
2022/09/13 04:19:18;;;;;;;9.30;3.33;;;15.70;86.00;;;;;;5042413;28;20541;-71
2022/09/13 04:21:47;;;;;;;5.00;3.63;;;15.80;86.00;;;;;;5042214;28;20559;-73
2022/09/13 04:24:14;;;;;;;3.43;3.10;;;15.80;85.70;;;;;;5049751;28;20258;-72
2022/09/13 04:26:39;;;;;;;3.97;2.80;;;15.80;85.60;;;;;;5051143;28;20415;-73
2022/09/13 04:29:05;;;;;;;5.90;3.63;;;15.70;85.70;;;;;;5050512;28;20484;-72
2022/09/13 04:31:30;;;;;;;5.90;4.27;;;15.70;85.90;;;;;;5048656;28;20186;-75
2022/09/13 04:33:56;;;;;;;8.00;3.70;;;15.70;85.70;;;;;;5047429;28;20208;-73
2022/09/13 04:36:21;;;;;;;5.57;3.60;;;15.70;85.70;;;;;;5046445;28;20184;-73
2022/09/13 04:38:47;;;;;;;6.43;3.67;;;15.70;85.90;;;;;;5047496;28;20189;-74
2022/09/13 04:41:16;;;;;;;6.53;3.50;;;15.70;85.90;;;;;;5042456;28;20618;-72
2022/09/13 04:43:41;;;;;;;4.30;3.03;;;15.70;86.00;;;;;;5037962;28;20475;-71
2022/09/13 04:46:07;;;;;;;7.77;4.07;;;15.80;85.60;;;;;;5043808;28;20428;-75
2022/09/13 04:48:33;;;;;;;8.13;3.13;;;15.80;85.70;;;;;;5046085;28;20182;-74
2022/09/13 04:51:03;;;;;;;3.53;3.10;;;15.70;85.70;;;;;;5041860;28;20185;-75
2022/09/13 04:53:30;;;;;;;4.87;3.50;;;15.80;85.90;;;;;;5041105;28;20276;-74
2022/09/13 04:56:03;;;;;;;4.90;3.40;;;15.80;85.70;;;;;;5040360;28;20424;-75
2022/09/13 04:58:30;;;;;;;4.60;3.57;;;15.80;85.60;;;;;;5044097;28;20423;-74
2022/09/13 05:01:07;;;;;;;4.80;3.40;;;15.70;85.90;;;;;;5036144;28;20605;-75
2022/09/13 05:03:34;;;;;;;8.07;4.17;;;15.80;86.20;;;;;;5040747;28;20477;-73
2022/09/13 05:06:07;;;;;;;5.53;3.47;;;15.90;85.60;;;;;;5037759;28;21122;-73
2022/09/13 05:08:34;;;;;;;11.33;3.60;;;16.00;85.30;;;;;;5041464;28;20466;-74
2022/09/13 05:11:00;;;;;;;5.00;3.70;;;15.90;85.00;;;;;;5038211;28;20439;-74
2022/09/13 05:13:26;;;;;;;10.23;4.10;;;15.90;85.30;;;;;;5043626;28;20466;-75
2022/09/13 05:15:59;;;;;;;7.47;4.30;;;15.90;85.20;;;;;;5041465;28;20193;-74
2022/09/13 05:18:29;;;;;;;7.27;4.43;;;15.90;85.50;;;;;;5039463;28;20516;-74
2022/09/13 05:20:56;;;;;;;6.83;4.20;;;15.90;85.50;;;;;;5040611;28;20518;-73
2022/09/13 05:23:23;;;;;;;7.03;3.80;;;15.90;85.50;;;;;;5037873;28;21027;-72
2022/09/13 05:25:53;;;;;;;5.60;3.67;;;15.90;85.60;;;;;;5037754;28;20573;-75
2022/09/13 05:28:19;;;;;;;8.23;4.50;;;15.90;85.50;;;;;;5042024;28;21738;-74
2022/09/13 05:30:54;;;;;;;10.90;4.63;;;15.90;85.60;;;;;;5041354;28;20909;-74
2022/09/13 05:33:20;;;;;;;4.53;3.70;;;15.90;85.90;;;;;;5039950;28;20442;-73
2022/09/13 05:35:46;;;;;;;5.00;3.60;;;16.00;85.90;;;;;;5045884;28;20412;-72
2022/09/13 05:38:11;;;;;;;5.87;3.77;;;16.10;85.60;;;;;;5038584;28;20181;-72
2022/09/13 05:40:37;;;;;;;7.57;4.67;;;16.10;85.50;;;;;;5039845;28;20186;-74
2022/09/13 05:43:02;;;;;;;6.87;3.73;;;16.10;85.50;;;;;;5034940;28;20563;-71
2022/09/13 05:45:28;;;;;;;6.67;4.20;;;16.10;85.50;;;;;;5041671;28;20549;-72
2022/09/13 05:47:53;;;;;;;6.90;3.93;;;16.10;85.30;;;;;;5039439;28;20218;-74
2022/09/13 05:50:19;;;;;;;5.40;3.90;;;16.10;85.20;;;;;;5046851;28;20239;-74
2022/09/13 05:52:51;;;;;;;9.60;3.47;;;16.20;85.00;;;;;;5042295;28;20528;-71
2022/09/13 05:55:17;;;;;;;4.73;3.47;;;16.20;84.60;;;;;;5040873;28;20290;-72
2022/09/13 05:57:43;;;;;;;7.40;3.90;;;16.20;84.70;;;;;;5032759;28;20510;-72
2022/09/13 06:00:09;;;;;;;10.17;4.13;;;16.20;85.00;;;;;;5041532;28;20195;-74
2022/09/13 06:02:34;;;;;;;4.27;3.50;;;16.30;85.00;;;;;;5036832;28;20204;-72
2022/09/13 06:05:00;;;;;;;4.10;3.67;;;16.20;85.30;;;;;;5041076;28;20454;-73
2022/09/13 06:07:26;;;;;;;5.53;3.97;;;16.40;85.00;;;;;;5038270;28;20176;-71
2022/09/13 06:09:52;;;;;;;4.93;3.93;;;16.40;85.00;;;;;;5038808;28;20231;-72
2022/09/13 06:12:17;;;;;;;4.97;3.70;;;16.40;85.00;;;;;;5040440;28;20533;-73
2022/09/13 06:14:43;;;;;;;8.93;4.50;;;16.50;85.00;;;;;;5037660;28;20216;-74
2022/09/13 06:17:08;;;;;;;4.47;3.80;;;16.40;84.30;;;;;;5044989;28;20187;-72
2022/09/13 06:19:34;;;;;;;6.77;4.43;;;16.40;84.40;;;;;;5038873;28;20208;-72
2022/09/13 06:21:59;;;;;;;9.87;4.03;;;16.60;84.10;;;;;;5044627;28;20226;-73
2022/09/13 06:24:25;;;;;;;6.20;4.50;;;16.60;83.40;;;;;;5038868;28;20298;-73
2022/09/13 06:26:51;;;;;;;5.67;4.17;;;16.60;83.60;;;;;;5044582;28;20215;-73
2022/09/13 06:29:16;;;;;;;6.50;4.00;;;16.50;84.00;;;;;;5041538;28;20188;-75
2022/09/13 06:31:44;;;;;;;5.40;3.80;;;16.50;84.10;;;;;;5042564;28;20629;-74
2022/09/13 06:34:15;;;;;;;5.87;3.70;;;16.60;83.80;;;;;;5043218;28;20201;-72
2022/09/13 06:36:41;;;;;;;5.00;4.67;;;16.50;84.00;;;;;;5041576;28;20871;-72
2022/09/13 06:39:07;;;;;;;4.87;3.57;;;16.60;84.00;;;;;;5035438;28;20431;-73
2022/09/13 06:41:33;;;;;;;7.43;4.43;;;16.60;84.00;;;;;;5039608;28;20444;-71
2022/09/13 06:44:00;;;;;;;7.60;4.40;;;16.70;84.00;;;;;;5038392;28;20284;-73
2022/09/13 06:46:28;;;;;;;7.77;4.70;;;16.70;83.80;;;;;;5041308;28;20589;-73
2022/09/13 06:48:54;;;;;;;7.00;4.40;;;16.70;84.00;;;;;;5036956;28;20519;-74
2022/09/13 06:51:23;;;;;;;8.97;5.20;;;16.80;83.70;;;;;;5039196;28;20511;-72
2022/09/13 06:53:50;;;;;;;13.27;4.23;;;16.80;83.40;;;;;;5037331;28;20502;-74
2022/09/13 06:56:41;;;;;;;8.50;4.60;;;16.80;83.60;;;;;;5041167;28;20498;-72
2022/09/13 06:59:09;;;;;;;6.50;4.10;;;16.90;83.40;;;;;;5034412;28;20474;-74
2022/09/13 07:01:36;;;;;;;11.37;4.90;;;17.00;82.70;;;;;;5038808;28;20502;-74
2022/09/13 07:04:09;;;;;;;6.57;4.70;;;17.10;82.70;;;;;;5042300;28;20640;-73
2022/09/13 07:06:43;;;;;;;10.13;4.97;;;17.10;82.20;;;;;;5038309;28;20539;-73
2022/09/13 07:09:18;;;;;;;9.13;4.57;;;17.20;82.10;;;;;;5047330;28;20531;-72
2022/09/13 07:11:45;;;;;;;6.70;4.60;;;17.20;82.20;;;;;;5040939;28;20416;-74
2022/09/13 07:14:17;;;;;;;7.57;4.97;;;17.20;82.50;;;;;;5048558;28;20461;-72
2022/09/13 07:16:42;;;;;;;6.80;4.07;;;17.40;82.20;;;;;;5042956;28;20930;-73
2022/09/13 07:19:21;;;;;;;6.27;4.43;;;17.50;81.50;;;;;;5050046;28;20533;-73
2022/09/13 07:21:48;;;;;;;10.60;4.53;;;17.50;80.80;;;;;;5036363;28;20288;-73
2022/09/13 07:24:18;;;;;;;6.73;4.33;;;17.60;80.50;;;;;;5043052;28;20481;-74
2022/09/13 07:26:45;;;;;;;8.63;4.00;;;17.70;79.90;;;;;;5036203;28;20419;-73
2022/09/13 07:29:17;;;;;;;7.50;4.10;;;17.90;80.00;;;;;;5048193;28;20799;-71
2022/09/13 07:31:45;;;;;;;8.20;4.53;;;18.00;79.70;;;;;;5038933;28;20425;-73
2022/09/13 07:34:14;;;;;;;7.67;5.27;;;18.10;79.30;;;;;;5044515;28;20884;-71
2022/09/13 07:36:41;;;;;;;11.50;5.20;;;18.10;78.60;;;;;;5040404;28;20435;-73
2022/09/13 07:39:07;;;;;;;8.97;4.70;;;18.20;78.70;;;;;;5042519;28;21010;-74
2022/09/13 07:41:33;;;;;;;8.07;5.00;;;18.20;78.40;;;;;;5038325;28;20474;-73
2022/09/13 07:44:03;;;;;;;9.07;5.37;;;18.20;78.40;;;;;;5042649;28;20463;-72
2022/09/13 07:46:36;;;;;;;11.10;6.27;;;18.30;78.30;;;;;;5045503;28;20440;-74
2022/09/13 07:49:02;;;;;;;11.00;5.90;;;18.40;77.80;;;;;;5037643;28;20454;-74
2022/09/13 07:51:34;;;;;;;11.60;6.33;;;18.40;78.00;;;;;;5045657;28;20455;-73
2022/09/13 07:54:02;;;;;;;11.40;5.20;;;18.60;77.40;;;;;;5039211;28;20245;-73
2022/09/13 07:56:32;;;;;;;11.20;5.90;;;18.80;76.70;;;;;;5041344;28;20426;-74
2022/09/13 07:58:59;;;;;;;13.70;6.77;;;18.90;76.20;;;;;;5037742;28;20931;-73
2022/09/13 08:01:34;;;;;;;12.13;6.30;;;19.00;75.50;;;;;;5042505;28;20425;-73
2022/09/13 08:04:02;;;;;;;17.03;5.50;;;19.00;75.90;;;;;;5045769;28;20458;-73
2022/09/13 08:06:29;;;;;;;9.93;5.67;;;19.10;75.70;;;;;;5041623;28;20433;-72
2022/09/13 08:08:56;;;;;;;15.03;5.60;;;19.40;75.20;;;;;;5044697;28;20416;-73
2022/09/13 08:11:36;;;;;;;8.00;4.80;;;19.70;74.60;;;;;;5042538;28;20467;-73
2022/09/13 08:14:03;;;;;;;11.50;6.10;;;20.00;72.70;;;;;;5050098;28;20458;-71
2022/09/13 08:16:29;;;;;;;8.57;5.37;;;20.20;71.70;;;;;;5043779;28;20419;-73
2022/09/13 08:18:57;;;;;;;14.70;5.37;;;20.40;71.00;;;;;;5045371;28;20469;-71
2022/09/13 08:21:24;;;;;;;12.80;5.50;;;20.40;70.10;;;;;;5041920;28;20430;-72
2022/09/13 08:23:55;;;;;;;8.20;4.90;;;20.20;70.70;;;;;;5041753;28;20480;-74
2022/09/13 08:26:20;;;;;;;7.00;4.63;;;20.30;70.80;;;;;;5041900;28;20403;-72
2022/09/13 08:28:46;;;;;;;8.57;5.27;;;20.20;71.30;;;;;;5041544;28;20811;-73
2022/09/13 08:31:16;;;;;;;8.43;5.20;;;20.00;72.30;;;;;;5037144;28;20733;-72
2022/09/13 08:33:49;;;;;;;7.60;4.57;;;20.10;72.70;;;;;;5038491;28;20210;-72
2022/09/13 08:36:16;;;;;;;16.87;9.07;;;20.40;72.40;;;;;;5040168;28;20420;-75
2022/09/13 08:38:49;;;;;;;11.73;5.40;;;20.60;71.40;;;;;;5039637;28;20424;-73
2022/09/13 08:41:47;;;;;;;11.10;5.07;;;20.80;70.50;;;;;;5039151;28;20854;-73
2022/09/13 08:44:22;;;;;;;6.80;4.43;;;20.90;70.10;;;;;;5037408;28;20455;-73
2022/09/13 08:46:48;;;;;;;9.00;4.60;;;21.00;69.70;;;;;;5044776;28;20424;-74
2022/09/13 08:49:17;;;;;;;13.40;5.23;;;21.10;69.90;;;;;;5041584;28;20424;-73
2022/09/13 08:51:49;;;;;;;8.30;5.00;;;21.20;69.50;;;;;;5036302;28;20433;-73
2022/09/13 08:54:16;;;;;;;19.53;5.73;;;21.40;68.60;;;;;;5034976;28;20649;-72
2022/09/13 08:57:07;;;;;;;11.93;5.17;;;21.40;68.60;;;;;;5034064;28;20473;-73
2022/09/13 09:00:00;;;;;;;10.77;4.90;;;21.30;68.80;;;;;;5038207;28;20501;-72
2022/09/13 09:02:44;;;;;;;6.27;4.47;;;21.20;68.90;;;;;;5035875;28;20536;-73
2022/09/13 09:05:23;;;;;;;11.60;5.10;;;21.40;68.50;;;;;;5034988;28;20456;-71
2022/09/13 09:08:00;;;;;;;9.83;4.63;;;21.30;68.90;;;;;;5037132;28;20422;-74
2022/09/13 09:10:48;;;;;;;8.13;5.63;;;21.30;69.10;;;;;;5033514;28;20426;-73
2022/09/13 09:13:13;;;;;;;8.63;4.37;;;21.40;68.80;;;;;;5036120;28;20426;-73
2022/09/13 09:15:51;;;;;;;10.27;4.10;;;21.50;68.50;;;;;;5042377;28;20994;-73
2022/09/13 09:18:18;;;;;;;6.87;4.00;;;21.70;68.60;;;;;;5034784;28;20221;-72
2022/09/13 09:20:49;;;;;;;7.20;4.87;;;21.80;68.30;;;;;;5038080;28;20422;-72
2022/09/13 09:23:18;;;;;;;10.07;4.70;;;22.00;67.90;;;;;;5036529;28;20807;-72
2022/09/13 09:25:44;;;;;;;11.63;5.30;;;22.10;67.70;;;;;;5034236;28;20430;-73
2022/09/13 09:28:13;;;;;;;9.40;4.83;;;22.20;67.30;;;;;;5038262;28;20423;-72
2022/09/13 09:30:50;;;;;;;5.47;4.10;;;22.30;67.30;;;;;;5045170;28;20444;-72
2022/09/13 09:33:51;;;;;;;13.23;5.03;;;22.40;66.70;;;;;;5043321;28;20557;-73
2022/09/13 09:36:45;;;;;;;6.73;4.40;;;22.60;66.60;;;;;;5037375;28;20514;-73
2022/09/13 09:39:15;;;;;;;6.80;4.20;;;22.80;66.00;;;;;;5039002;28;20424;-73
2022/09/13 09:41:42;;;;;;;8.30;4.40;;;22.80;65.40;;;;;;5040830;28;20506;-74
2022/09/13 09:44:21;;;;;;;8.40;4.53;;;22.80;65.80;;;;;;5042036;28;20541;-73
2022/09/13 09:46:55;;;;;;;12.97;4.07;;;23.00;65.70;;;;;;5038980;28;20477;-74
2022/09/13 09:52:33;;;;;;;7.43;4.67;;;23.20;65.10;;;;;;5042784;28;20439;-75
2022/09/13 09:55:09;;;;;;;7.83;4.40;;;23.20;65.60;;;;;;5039915;28;20469;-74
2022/09/13 09:57:56;;;;;;;5.67;4.27;;;23.10;65.30;;;;;;5046452;28;20430;-74
2022/09/13 10:00:25;;;;;;;9.23;4.50;;;23.30;65.10;;;;;;5047012;28;20443;-75
2022/09/13 10:02:55;;;;;;;9.13;4.50;;;23.30;65.30;;;;;;5043438;28;20779;-73
2022/09/13 10:05:22;;;;;;;9.03;4.33;;;23.50;65.10;;;;;;5044745;28;20449;-72
2022/09/13 10:07:57;;;;;;;7.83;4.03;;;23.70;63.90;;;;;;5038313;28;20430;-73
2022/09/13 10:10:30;;;;;;;5.90;4.00;;;23.80;64.10;;;;;;5034347;28;20432;-73
2022/09/13 10:12:56;;;;;;;6.10;3.93;;;23.90;63.20;;;;;;5037054;28;20425;-74
2022/09/13 10:15:26;;;;;;;11.53;4.07;;;23.80;63.40;;;;;;5041510;28;20456;-75
2022/09/13 10:18:03;;;;;;;8.27;3.70;;;23.70;63.50;;;;;;5034002;28;20423;-74
2022/09/13 10:20:30;;;;;;;7.47;4.20;;;23.70;62.90;;;;;;5039623;28;21050;-74
2022/09/13 10:23:14;;;;;;;7.13;3.73;;;23.70;61.70;;;;;;5034913;28;20470;-74
2022/09/13 10:25:43;;;;;;;6.03;3.90;;;23.70;61.90;;;;;;5039189;28;20424;-73
2022/09/13 10:28:18;;;;;;;8.40;3.90;;;23.70;61.00;;;;;;5065025;28;20419;-74
2022/09/13 10:30:52;;;;;;;7.03;4.17;;;23.70;60.40;;;;;;5035101;28;20863;-72
2022/09/13 10:33:29;;;;;;;5.90;3.67;;;23.80;60.40;;;;;;5041340;28;20865;-74
2022/09/13 10:35:59;;;;;;;7.10;3.80;;;23.90;60.40;;;;;;5036149;28;20430;-74
2022/09/13 10:38:27;;;;;;;6.73;3.30;;;24.00;60.10;;;;;;5040454;28;20423;-76
2022/09/13 10:40:54;;;;;;;6.60;3.77;;;24.20;59.20;;;;;;5037834;28;20426;-74
2022/09/13 10:43:22;;;;;;;6.40;3.37;;;24.50;58.70;;;;;;5041618;28;20517;-74
2022/09/13 10:45:49;;;;;;;4.97;3.47;;;24.90;56.60;;;;;;5041517;28;20509;-76
2022/09/13 10:48:17;;;;;;;5.83;4.07;;;25.20;55.80;;;;;;5044129;28;20837;-74
2022/09/13 10:51:05;;;;;;;7.90;4.30;;;25.40;55.70;;;;;;5044997;28;20421;-74
2022/09/13 10:53:38;;;;;;;7.63;3.93;;;25.80;55.00;;;;;;5037395;28;20455;-72
2022/09/13 10:56:06;;;;;;;5.90;3.60;;;25.80;54.80;;;;;;5043931;28;20420;-72
2022/09/13 10:58:31;;;;;;;8.07;3.57;;;26.20;54.50;;;;;;5038536;28;20494;-72
2022/09/13 11:01:15;;;;;;;7.03;3.63;;;26.60;53.40;;;;;;5042642;28;20470;-75
2022/09/13 11:04:08;;;;;;;8.00;3.67;;;26.70;53.20;;;;;;5039577;28;20737;-73
2022/09/13 11:07:06;;;;;;;5.23;3.77;;;26.70;52.90;;;;;;5041862;28;20419;-74
2022/09/13 11:10:03;;;;;;;8.23;3.83;;;26.30;53.60;;;;;;5044108;28;20899;-74
2022/09/13 11:12:45;;;;;;;5.80;3.83;;;25.90;54.40;;;;;;5040627;28;20508;-72
2022/09/13 11:15:29;;;;;;;6.07;3.47;;;26.00;54.10;;;;;;5038111;28;20920;-71
2022/09/13 11:18:14;;;;;;;6.33;4.03;;;26.10;53.80;;;;;;5041557;28;20445;-73
2022/09/13 11:20:50;;;;;;;5.80;3.10;;;26.00;53.20;;;;;;5042554;28;20430;-69
2022/09/13 11:23:33;;;;;;;6.10;3.03;;;25.90;52.60;;;;;;5040378;28;20465;-74
2022/09/13 11:26:04;;;;;;;4.03;3.00;;;25.70;52.60;;;;;;5041283;28;20405;-75
2022/09/13 11:28:55;;;;;;;4.30;3.17;;;25.70;52.20;;;;;;5039681;28;20419;-74
2022/09/13 11:31:49;;;;;;;4.83;3.50;;;25.70;51.40;;;;;;5035934;28;20505;-75
2022/09/13 11:34:39;;;;;;;4.50;2.97;;;26.10;50.30;;;;;;5034728;28;20457;-73
2022/09/13 11:37:17;;;;;;;4.20;2.70;;;26.70;48.70;;;;;;5046618;28;20480;-73
2022/09/13 11:39:52;;;;;;;5.43;2.70;;;27.20;47.50;;;;;;5034677;28;20415;-76
2022/09/13 11:42:42;;;;;;;9.30;2.70;;;27.50;46.10;;;;;;5042043;28;20473;-74
2022/09/13 11:45:34;;;;;;;6.33;3.47;;;27.30;46.10;;;;;;5038043;28;20462;-76
2022/09/13 11:48:11;;;;;;;6.03;3.40;;;27.10;46.70;;;;;;5037639;28;20454;-75
2022/09/13 11:50:58;;;;;;;8.27;3.00;;;27.20;46.60;;;;;;5039954;28;20447;-76
2022/09/13 11:53:49;;;;;;;4.00;2.80;;;27.00;46.70;;;;;;5036266;28;20446;-75
2022/09/13 11:56:33;;;;;;;5.20;2.47;;;27.30;45.50;;;;;;5041182;28;20797;-75
2022/09/13 11:59:19;;;;;;;3.07;2.60;;;27.20;45.10;;;;;;5043216;28;20430;-74
2022/09/13 12:01:51;;;;;;;3.80;2.90;;;27.20;44.50;;;;;;5035487;28;20460;-77
2022/09/13 12:04:16;;;;;;;5.90;3.03;;;27.40;44.90;;;;;;5041985;28;20458;-72
2022/09/13 12:06:49;;;;;;;5.50;3.00;;;27.40;45.50;;;;;;5037849;28;20433;-73
2022/09/13 12:09:19;;;;;;;7.87;2.43;;;27.10;46.30;;;;;;5045769;28;20275;-72
2022/09/13 12:11:59;;;;;;;5.80;2.57;;;27.10;45.90;;;;;;5037315;28;20423;-73
2022/09/13 12:14:29;;;;;;;5.80;2.60;;;27.10;45.30;;;;;;5042072;28;20463;-73
2022/09/13 12:17:05;;;;;;;3.90;2.50;;;27.20;45.00;;;;;;5050879;28;20492;-72
2022/09/13 12:19:44;;;;;;;3.70;2.73;;;27.40;44.30;;;;;;5045374;28;20562;-75
2022/09/13 12:22:12;;;;;;;3.80;1.93;;;27.50;44.20;;;;;;5051523;28;20465;-74
2022/09/13 12:24:47;;;;;;;6.47;2.20;;;27.90;42.30;;;;;;5040957;28;20539;-73
2022/09/13 12:27:28;;;;;;;4.93;2.47;;;27.90;42.70;;;;;;5051805;28;20425;-72
2022/09/13 12:30:13;;;;;;;4.07;2.20;;;27.80;42.80;;;;;;5045140;28;20922;-72
2022/09/13 12:32:39;;;;;;;2.20;1.80;;;28.10;43.20;;;;;;5045934;28;20435;-73
2022/09/13 12:35:14;;;;;;;3.60;2.40;;;28.50;41.40;;;;;;5051627;28;20455;-73
2022/09/13 12:38:10;;;;;;;4.37;1.80;;;28.40;42.00;;;;;;5044904;28;20529;-69
2022/09/13 12:40:57;;;;;;;3.90;1.93;;;28.20;41.60;;;;;;5047648;28;20431;-75
2022/09/13 12:44:00;;;;;;;4.30;1.97;;;28.30;41.60;;;;;;5044392;28;20467;-72
2022/09/13 12:46:42;;;;;;;8.00;2.30;;;28.80;41.80;;;;;;5040492;28;20426;-74
2022/09/13 12:49:24;;;;;;;2.67;2.10;;;28.90;39.50;;;;;;5044521;28;20411;-74
2022/09/13 12:51:58;;;;;;;3.40;2.00;;;28.50;40.70;;;;;;5038950;28;20431;-75
2022/09/13 12:54:27;;;;;;;2.30;1.97;;;28.50;40.30;;;;;;5047119;28;20458;-72
2022/09/13 12:57:07;;;;;;;6.00;2.37;;;28.20;40.30;;;;;;5048331;28;20749;-73
2022/09/13 12:59:37;;;;;;;4.83;2.00;;;28.10;41.10;;;;;;5049618;28;20431;-72
2022/09/13 13:02:41;;;;;;;5.10;2.37;;;28.30;40.20;;;;;;5044285;28;20490;-74
2022/09/13 13:05:32;;;;;;;3.00;2.13;;;28.20;39.90;;;;;;5039515;28;20470;-75
2022/09/13 13:08:05;;;;;;;3.83;2.30;;;28.70;39.40;;;;;;5047420;28;20934;-74
2022/09/13 13:10:36;;;;;;;5.03;2.00;;;28.80;38.30;;;;;;5042169;28;20431;-72
2022/09/13 13:13:18;;;;;;;6.20;2.20;;;28.80;37.90;;;;;;5046887;28;20426;-72
2022/09/13 13:15:43;;;;;;;3.47;2.07;;;28.80;37.50;;;;;;5044142;28;20431;-75
2022/09/13 13:18:29;;;;;;;3.70;2.30;;;28.80;37.50;;;;;;5045733;28;20489;-72
2022/09/13 13:20:55;;;;;;;2.60;1.97;;;28.60;37.10;;;;;;5048880;28;20554;-73